createdAt,value
2018-09-03T00:00:58.159Z,93.80
2018-09-03T00:03:25.975Z,93.70
2018-09-03T00:05:53.578Z,93.70
2018-09-03T00:08:21.475Z,93.60
2018-09-03T00:10:49.065Z,93.70
2018-09-03T00:13:16.742Z,93.70
2018-09-03T00:15:44.819Z,94.00
2018-09-03T00:18:12.850Z,94.00
2018-09-03T00:20:40.454Z,94.30
2018-09-03T00:23:08.151Z,94.20
2018-09-03T00:25:35.852Z,94.80
2018-09-03T00:28:03.511Z,94.30
2018-09-03T00:30:31.486Z,94.20
2018-09-03T00:33:04.686Z,94.10
2018-09-03T00:35:37.962Z,94.30
2018-09-03T00:38:11.214Z,94.40
2018-09-03T00:40:44.426Z,94.30
2018-09-03T00:43:17.679Z,94.30
2018-09-03T00:45:50.792Z,94.50
2018-09-03T00:48:18.543Z,94.50
2018-09-03T00:50:46.227Z,94.70
2018-09-03T00:53:13.899Z,94.90
2018-09-03T00:55:41.542Z,94.90
2018-09-03T00:58:09.194Z,95.00
2018-09-03T01:00:36.911Z,94.80
2018-09-03T01:03:04.607Z,94.80
2018-09-03T01:05:32.212Z,95.00
2018-09-03T01:07:59.799Z,95.20
2018-09-03T01:10:27.434Z,95.20
2018-09-03T01:12:55.088Z,95.30
2018-09-03T01:15:23.142Z,95.30
2018-09-03T01:17:50.943Z,95.20
2018-09-03T01:20:18.617Z,95.40
2018-09-03T01:22:46.256Z,95.20
2018-09-03T01:25:13.906Z,95.00
2018-09-03T01:27:41.528Z,95.10
2018-09-03T01:30:09.155Z,95.10
2018-09-03T01:32:36.811Z,94.60
2018-09-03T01:35:04.515Z,94.70
2018-09-03T01:37:32.106Z,94.90
2018-09-03T01:39:59.777Z,94.60
2018-09-03T01:42:27.450Z,94.90
2018-09-03T01:44:55.055Z,94.70
2018-09-03T01:47:23.560Z,94.70
2018-09-03T01:49:51.262Z,94.70
2018-09-03T01:52:18.972Z,94.80
2018-09-03T01:54:46.650Z,94.80
2018-09-03T01:57:14.297Z,94.90
2018-09-03T01:59:41.882Z,94.70
2018-09-03T02:02:09.548Z,94.80
2018-09-03T02:04:37.155Z,94.90
2018-09-03T02:07:04.851Z,94.90
2018-09-03T02:09:32.547Z,94.90
2018-09-03T02:12:00.231Z,94.80
2018-09-03T02:14:28.686Z,94.80
2018-09-03T02:16:56.354Z,94.70
2018-09-03T02:19:24.011Z,94.90
2018-09-03T02:21:51.620Z,94.90
2018-09-03T02:24:19.312Z,95.00
2018-09-03T02:26:47.027Z,95.00
2018-09-03T02:29:14.682Z,94.90
2018-09-03T02:31:42.355Z,94.90
2018-09-03T02:34:09.977Z,94.80
2018-09-03T02:36:37.588Z,94.90
2018-09-03T02:39:06.379Z,94.90
2018-09-03T02:41:34.018Z,95.00
2018-09-03T02:44:01.666Z,95.20
2018-09-03T02:46:29.347Z,95.00
2018-09-03T02:48:56.990Z,94.90
2018-09-03T02:51:24.719Z,94.80
2018-09-03T02:53:52.409Z,94.80
2018-09-03T02:56:20.013Z,94.90
2018-09-03T02:58:47.670Z,94.70
2018-09-03T03:01:15.321Z,94.80
2018-09-03T03:03:43.023Z,94.90
2018-09-03T03:06:10.694Z,95.10
2018-09-03T03:08:38.398Z,95.00
2018-09-03T03:11:06.245Z,95.10
2018-09-03T03:13:33.823Z,94.90
2018-09-03T03:16:01.484Z,94.90
2018-09-03T03:18:29.106Z,94.90
2018-09-03T03:20:56.831Z,94.80
2018-09-03T03:23:24.413Z,94.80
2018-09-03T03:25:52.183Z,95.10
2018-09-03T03:28:19.838Z,95.00
2018-09-03T03:30:47.447Z,95.10
2018-09-03T03:33:15.045Z,95.10
2018-09-03T03:35:42.716Z,95.00
2018-09-03T03:38:10.397Z,94.90
2018-09-03T03:40:38.005Z,94.80
2018-09-03T03:43:05.673Z,95.10
2018-09-03T03:45:33.274Z,94.90
2018-09-03T03:48:00.885Z,95.20
2018-09-03T03:50:28.474Z,95.10
2018-09-03T03:52:56.143Z,95.00
2018-09-03T03:55:23.871Z,94.90
2018-09-03T03:57:51.477Z,95.00
2018-09-03T04:00:19.128Z,95.00
2018-09-03T04:02:46.676Z,94.90
2018-09-03T04:05:14.304Z,95.00
2018-09-03T04:07:41.957Z,94.70
2018-09-03T04:10:09.628Z,94.90
2018-09-03T04:12:37.410Z,94.90
2018-09-03T04:15:05.175Z,95.00
2018-09-03T04:17:32.770Z,94.80
2018-09-03T04:20:03.145Z,95.00
2018-09-03T04:22:31.694Z,95.00
2018-09-03T04:24:59.382Z,95.00
2018-09-03T04:27:27.043Z,95.00
2018-09-03T04:29:54.670Z,95.10
2018-09-03T04:32:22.613Z,94.90
2018-09-03T04:34:50.199Z,94.60
2018-09-03T04:37:17.804Z,94.60
2018-09-03T04:39:45.450Z,94.80
2018-09-03T04:42:13.132Z,94.90
2018-09-03T04:44:40.793Z,94.70
2018-09-03T04:47:08.450Z,94.70
2018-09-03T04:49:36.319Z,94.80
2018-09-03T04:52:04.083Z,95.00
2018-09-03T04:54:31.798Z,94.80
2018-09-03T04:56:59.426Z,94.80
2018-09-03T04:59:26.959Z,94.90
2018-09-03T05:01:54.600Z,94.80
2018-09-03T05:04:22.274Z,94.70
2018-09-03T05:06:49.868Z,94.60
2018-09-03T05:09:17.508Z,94.90
2018-09-03T05:11:45.175Z,94.70
2018-09-03T05:14:12.755Z,95.00
2018-09-03T05:16:40.426Z,95.10
2018-09-03T05:19:08.095Z,94.90
2018-09-03T05:21:35.746Z,95.00
2018-09-03T05:24:03.492Z,95.00
2018-09-03T05:26:31.162Z,95.00
2018-09-03T05:28:59.067Z,95.10
2018-09-03T05:31:26.691Z,95.20
2018-09-03T05:33:54.379Z,94.90
2018-09-03T05:36:22.019Z,95.00
2018-09-03T05:38:49.687Z,95.10
2018-09-03T05:41:17.296Z,95.00
2018-09-03T05:43:44.969Z,95.00
2018-09-03T05:46:12.558Z,95.10
2018-09-03T05:48:40.156Z,94.90
2018-09-03T05:51:08.049Z,94.90
2018-09-03T05:53:35.763Z,94.80
2018-09-03T05:56:03.435Z,95.00
2018-09-03T05:58:31.153Z,95.10
2018-09-03T06:00:58.959Z,95.20
2018-09-03T06:03:26.576Z,95.10
2018-09-03T06:05:54.206Z,95.00
2018-09-03T06:08:22.766Z,94.80
2018-09-03T06:10:50.327Z,94.70
2018-09-03T06:13:17.982Z,94.60
2018-09-03T06:15:45.618Z,94.50
2018-09-03T06:18:13.254Z,94.60
2018-09-03T06:20:40.838Z,94.60
2018-09-03T06:23:08.442Z,94.60
2018-09-03T06:25:36.106Z,94.50
2018-09-03T06:28:03.738Z,94.60
2018-09-03T06:30:31.398Z,94.60
2018-09-03T06:32:59.006Z,94.40
2018-09-03T06:35:26.626Z,94.50
2018-09-03T06:37:54.257Z,94.30
2018-09-03T06:40:21.863Z,94.10
2018-09-03T06:42:49.706Z,94.30
2018-09-03T06:45:17.355Z,94.00
2018-09-03T06:47:44.951Z,93.90
2018-09-03T06:50:12.742Z,93.80
2018-09-03T06:52:40.450Z,93.90
2018-09-03T06:55:08.023Z,93.50
2018-09-03T06:57:35.665Z,93.40
2018-09-03T07:00:03.741Z,93.50
2018-09-03T07:02:31.383Z,93.00
2018-09-03T07:04:59.032Z,93.20
2018-09-03T07:07:26.668Z,93.20
2018-09-03T07:09:54.248Z,93.00
2018-09-03T07:12:21.866Z,92.70
2018-09-03T07:14:49.503Z,92.30
2018-09-03T07:17:17.256Z,92.30
2018-09-03T07:19:44.917Z,92.30
2018-09-03T07:22:12.522Z,91.80
2018-09-03T07:24:40.598Z,91.80
2018-09-03T07:27:08.306Z,91.70
2018-09-03T07:29:36.040Z,91.80
2018-09-03T07:32:03.731Z,91.80
2018-09-03T07:34:31.329Z,91.90
2018-09-03T07:36:58.957Z,91.70
2018-09-03T07:39:26.597Z,91.60
2018-09-03T07:41:54.705Z,91.40
2018-09-03T07:44:22.346Z,91.40
2018-09-03T07:46:49.951Z,91.00
2018-09-03T07:49:17.550Z,90.90
2018-09-03T07:51:45.275Z,90.90
2018-09-03T07:54:12.886Z,90.90
2018-09-03T07:56:40.518Z,90.70
2018-09-03T07:59:08.124Z,90.70
2018-09-03T08:01:35.755Z,90.80
2018-09-03T08:04:03.374Z,90.90
2018-09-03T08:06:34.037Z,91.20
2018-09-03T08:09:02.066Z,91.20
2018-09-03T08:11:29.694Z,91.30
2018-09-03T08:13:57.418Z,91.40
2018-09-03T08:16:25.062Z,91.20
2018-09-03T08:22:08.031Z,91.00
2018-09-03T08:24:35.663Z,91.30
2018-09-03T08:27:03.854Z,91.50
2018-09-03T08:29:31.689Z,91.70
2018-09-03T08:31:59.451Z,91.50
2018-09-03T08:34:27.077Z,91.60
2018-09-03T08:36:54.678Z,91.30
2018-09-03T08:39:22.292Z,91.20
2018-09-03T08:41:50.157Z,90.80
2018-09-03T08:44:17.864Z,90.30
2018-09-03T08:46:45.470Z,90.00
2018-09-03T08:49:13.111Z,87.90
2018-09-03T08:51:40.696Z,86.70
2018-09-03T08:54:08.412Z,86.40
2018-09-03T08:56:36.402Z,86.20
2018-09-03T08:59:04.380Z,86.20
2018-09-03T09:01:32.068Z,86.60
2018-09-03T09:03:59.694Z,87.20
2018-09-03T09:06:27.308Z,87.60
2018-09-03T09:08:54.898Z,87.90
2018-09-03T09:11:22.490Z,87.70
2018-09-03T09:13:50.111Z,86.60
2018-09-03T09:16:17.779Z,87.00
2018-09-03T09:18:45.463Z,86.00
2018-09-03T09:21:13.111Z,85.70
2018-09-03T09:23:40.784Z,85.70
2018-09-03T09:26:08.379Z,85.20
2018-09-03T09:28:36.013Z,83.40
2018-09-03T09:31:03.712Z,82.10
2018-09-03T09:33:31.401Z,80.60
2018-09-03T09:35:59.011Z,79.80
2018-09-03T09:38:26.586Z,79.80
2018-09-03T09:40:54.171Z,80.10
2018-09-03T09:43:21.853Z,80.70
2018-09-03T09:45:49.435Z,81.60
2018-09-03T09:48:17.064Z,82.40
2018-09-03T09:50:44.698Z,82.80
2018-09-03T09:53:12.399Z,83.00
2018-09-03T09:55:40.040Z,83.40
2018-09-03T09:58:07.701Z,84.00
2018-09-03T10:00:40.779Z,83.90
2018-09-03T10:03:08.379Z,83.50
2018-09-03T10:05:36.015Z,83.60
2018-09-03T10:08:03.651Z,83.90
2018-09-03T10:10:31.259Z,83.40
2018-09-03T10:12:58.895Z,83.10
2018-09-03T10:15:26.598Z,82.30
2018-09-03T10:17:54.192Z,82.30
2018-09-03T10:20:21.883Z,81.70
2018-09-03T10:22:49.494Z,82.20
2018-09-03T10:25:17.124Z,82.70
2018-09-03T10:27:44.708Z,82.90
2018-09-03T10:30:12.330Z,82.70
2018-09-03T10:32:39.989Z,82.00
2018-09-03T10:35:07.656Z,80.80
2018-09-03T10:37:35.379Z,80.20
2018-09-03T10:40:03.207Z,80.30
2018-09-03T10:42:30.811Z,80.10
2018-09-03T10:44:58.459Z,80.20
2018-09-03T10:56:31.298Z,79.60
2018-09-03T10:58:58.857Z,79.50
2018-09-03T11:01:26.504Z,79.10
2018-09-03T11:03:54.085Z,78.60
2018-09-03T11:06:21.703Z,78.30
2018-09-03T11:08:49.321Z,77.70
2018-09-03T11:11:16.979Z,77.00
2018-09-03T11:13:44.547Z,77.00
2018-09-03T11:16:12.203Z,76.90
2018-09-03T11:18:39.798Z,75.70
2018-09-03T11:21:07.483Z,74.40
2018-09-03T11:23:35.060Z,73.40
2018-09-03T11:26:02.738Z,72.80
2018-09-03T11:28:30.345Z,72.60
2018-09-03T11:30:58.032Z,71.80
2018-09-03T11:33:25.622Z,72.00
2018-09-03T11:35:53.254Z,71.40
2018-09-03T11:38:20.991Z,70.40
2018-09-03T11:40:48.693Z,69.50
2018-09-03T11:43:16.283Z,67.90
2018-09-03T11:45:43.905Z,68.90
2018-09-03T11:48:11.527Z,69.20
2018-09-03T11:50:39.183Z,68.00
2018-09-03T11:53:06.766Z,66.80
2018-09-03T11:55:34.447Z,67.40
2018-09-03T11:58:02.047Z,67.70
2018-09-03T12:00:30.749Z,67.90
2018-09-03T12:02:58.571Z,66.60
2018-09-03T12:05:26.747Z,66.30
2018-09-03T12:07:54.449Z,65.60
2018-09-03T12:10:22.168Z,64.90
2018-09-03T12:12:49.804Z,62.80
2018-09-03T12:15:29.373Z,61.60
2018-09-03T12:17:57.114Z,61.00
2018-09-03T12:20:24.867Z,61.00
2018-09-03T12:22:52.568Z,60.90
2018-09-03T12:25:20.275Z,61.40
2018-09-03T12:27:47.892Z,62.90
2018-09-03T12:30:15.500Z,63.90
2018-09-03T12:32:43.181Z,66.40
2018-09-03T12:35:11.054Z,67.30
2018-09-03T12:37:38.740Z,67.40
2018-09-03T12:40:06.509Z,67.50
2018-09-03T12:42:34.288Z,67.60
2018-09-03T12:45:01.936Z,67.90
2018-09-03T12:47:29.620Z,67.90
2018-09-03T12:49:57.267Z,68.00
2018-09-03T12:52:24.970Z,67.90
2018-09-03T12:54:52.582Z,67.80
2018-09-03T12:57:20.711Z,67.00
2018-09-03T12:59:48.363Z,66.90
2018-09-03T13:02:16.052Z,66.60
2018-09-03T13:04:43.664Z,66.80
2018-09-03T13:07:11.339Z,66.90
2018-09-03T13:09:38.990Z,66.40
2018-09-03T13:12:06.710Z,66.60
2018-09-03T13:14:34.407Z,66.10
2018-09-03T13:17:02.027Z,65.30
2018-09-03T13:19:29.824Z,64.80
2018-09-03T13:21:57.500Z,64.70
2018-09-03T13:24:25.111Z,64.90
2018-09-03T13:26:52.802Z,64.70
2018-09-03T13:29:20.472Z,64.50
2018-09-03T13:31:48.136Z,64.50
2018-09-03T13:34:16.131Z,63.90
2018-09-03T13:36:43.750Z,63.70
2018-09-03T13:39:11.443Z,64.10
2018-09-03T13:41:39.204Z,64.40
2018-09-03T13:44:07.035Z,65.20
2018-09-03T13:46:34.719Z,64.80
2018-09-03T13:49:02.341Z,64.40
2018-09-03T13:51:30.098Z,64.90
2018-09-03T13:53:57.815Z,64.10
2018-09-03T13:56:25.551Z,64.80
2018-09-03T13:58:53.182Z,65.10
2018-09-03T14:01:20.868Z,65.40
2018-09-03T14:03:48.529Z,66.00
2018-09-03T14:06:16.467Z,66.20
2018-09-03T14:08:44.171Z,66.70
2018-09-03T14:11:11.784Z,66.80
2018-09-03T14:13:39.536Z,67.20
2018-09-03T14:16:07.489Z,66.90
2018-09-03T14:18:35.127Z,67.50
2018-09-03T14:21:02.841Z,67.80
2018-09-03T14:23:30.576Z,68.30
2018-09-03T14:25:58.242Z,68.80
2018-09-03T14:28:25.926Z,68.80
2018-09-03T14:30:53.527Z,68.70
2018-09-03T14:33:21.116Z,68.60
2018-09-03T14:35:48.811Z,68.30
2018-09-03T14:38:16.411Z,68.20
2018-09-03T14:40:44.171Z,68.00
2018-09-03T14:43:11.826Z,67.90
2018-09-03T14:45:39.422Z,68.20
2018-09-03T14:48:07.082Z,68.50
2018-09-03T14:50:34.798Z,68.20
2018-09-03T14:53:02.422Z,68.40
2018-09-03T14:55:30.136Z,68.50
2018-09-03T14:57:57.831Z,68.90
2018-09-03T15:00:25.489Z,69.00
2018-09-03T15:02:53.159Z,68.60
2018-09-03T15:05:20.780Z,68.20
2018-09-03T15:07:48.462Z,68.50
2018-09-03T15:10:16.195Z,68.50
2018-09-03T15:12:43.808Z,68.60
2018-09-03T15:15:11.462Z,68.40
2018-09-03T15:17:39.215Z,68.20
2018-09-03T15:20:06.902Z,68.30
2018-09-03T15:22:34.823Z,68.20
2018-09-03T15:25:02.498Z,68.20
2018-09-03T15:27:30.239Z,68.20
2018-09-03T15:29:57.847Z,68.20
2018-09-03T15:32:25.791Z,68.00
2018-09-03T15:34:53.513Z,67.30
2018-09-03T15:37:21.081Z,67.10
2018-09-03T15:39:48.679Z,66.60
2018-09-03T15:42:16.367Z,66.60
2018-09-03T15:44:44.056Z,66.90
2018-09-03T15:47:11.675Z,67.20
2018-09-03T15:49:39.291Z,67.40
2018-09-03T15:52:06.908Z,68.30
2018-09-03T15:54:34.648Z,68.80
2018-09-03T15:57:02.338Z,69.10
2018-09-03T15:59:29.992Z,69.30
2018-09-03T16:01:57.623Z,69.60
2018-09-03T16:04:25.292Z,69.80
2018-09-03T16:06:53.051Z,70.00
2018-09-03T16:09:21.779Z,70.40
2018-09-03T16:11:49.388Z,70.60
2018-09-03T16:14:17.045Z,69.70
2018-09-03T16:16:44.751Z,69.80
2018-09-03T16:19:12.337Z,70.30
2018-09-03T16:21:40.015Z,70.80
2018-09-03T16:24:07.719Z,71.20
2018-09-03T16:26:35.335Z,71.00
2018-09-03T16:29:03.006Z,70.80
2018-09-03T16:31:30.712Z,71.20
2018-09-03T16:33:58.354Z,71.20
2018-09-03T16:36:25.995Z,71.40
2018-09-03T16:38:53.696Z,71.50
2018-09-03T16:41:21.355Z,71.60
2018-09-03T16:43:48.981Z,72.00
2018-09-03T16:46:16.650Z,72.20
2018-09-03T16:48:44.310Z,72.00
2018-09-03T16:51:11.922Z,72.60
2018-09-03T16:53:39.583Z,72.80
2018-09-03T16:56:07.259Z,73.10
2018-09-03T16:58:34.896Z,73.50
2018-09-03T17:01:02.541Z,73.40
2018-09-03T17:03:30.279Z,73.10
2018-09-03T17:05:57.907Z,73.10
2018-09-03T17:08:26.534Z,73.10
2018-09-03T17:10:54.226Z,73.10
2018-09-03T17:13:21.838Z,73.30
2018-09-03T17:15:49.544Z,72.70
2018-09-03T17:18:17.178Z,72.30
2018-09-03T17:20:44.891Z,72.50
2018-09-03T17:23:12.546Z,72.60
2018-09-03T17:25:40.566Z,72.50
2018-09-03T17:28:08.219Z,73.60
2018-09-03T17:30:35.896Z,73.50
2018-09-03T17:33:03.618Z,74.10
2018-09-03T17:35:31.338Z,74.80
2018-09-03T17:37:59.020Z,75.40
2018-09-03T17:40:26.685Z,75.80
2018-09-03T17:42:54.846Z,75.80
2018-09-03T17:45:22.587Z,76.40
2018-09-03T17:47:50.259Z,76.60
2018-09-03T17:50:18.023Z,77.30
2018-09-03T17:52:45.861Z,76.90
2018-09-03T17:55:13.655Z,77.30
2018-09-03T17:57:41.687Z,78.00
2018-09-03T18:00:10.201Z,78.10
2018-09-03T18:02:37.902Z,78.50
2018-09-03T18:05:05.742Z,78.60
2018-09-03T18:07:34.398Z,78.90
2018-09-03T18:10:02.317Z,79.30
2018-09-03T18:12:30.063Z,79.50
2018-09-03T18:14:57.682Z,79.60
2018-09-03T18:17:25.476Z,79.20
2018-09-03T18:19:53.148Z,79.70
2018-09-03T18:22:20.852Z,79.80
2018-09-03T18:24:48.641Z,79.90
2018-09-03T18:27:16.595Z,79.70
2018-09-03T18:29:44.234Z,80.20
2018-09-03T18:32:11.990Z,80.60
2018-09-03T18:34:40.509Z,81.30
2018-09-03T18:42:07.963Z,82.40
2018-09-03T18:44:35.778Z,82.50
2018-09-03T18:47:03.458Z,83.10
2018-09-03T18:49:31.137Z,83.50
2018-09-03T18:51:58.790Z,83.90
2018-09-03T18:54:26.446Z,84.00
2018-09-03T18:56:54.136Z,84.10
2018-09-03T18:59:21.886Z,84.50
2018-09-03T19:01:49.823Z,84.80
2018-09-03T19:04:17.498Z,85.20
2018-09-03T19:06:45.247Z,85.50
2018-09-03T19:09:12.916Z,85.50
2018-09-03T19:11:40.639Z,85.70
2018-09-03T19:14:08.571Z,85.60
2018-09-03T19:16:36.331Z,85.80
2018-09-03T19:19:04.111Z,86.00
2018-09-03T19:21:32.621Z,86.30
2018-09-03T19:24:00.430Z,86.20
2018-09-03T19:26:28.277Z,86.50
2018-09-03T19:28:55.976Z,86.50
2018-09-03T19:31:23.979Z,86.70
2018-09-03T19:33:51.655Z,86.90
2018-09-03T19:36:19.298Z,87.20
2018-09-03T19:38:47.101Z,87.30
2018-09-03T19:41:15.057Z,87.30
2018-09-03T19:43:42.740Z,87.20
2018-09-03T19:46:10.599Z,87.80
2018-09-03T19:48:38.479Z,86.90
2018-09-03T19:51:06.070Z,87.10
2018-09-03T19:53:33.754Z,87.70
2018-09-03T19:56:01.396Z,87.60
2018-09-03T19:58:28.973Z,87.20
2018-09-03T20:00:56.818Z,87.10
2018-09-03T20:03:24.563Z,86.80
2018-09-03T20:05:53.035Z,87.10
2018-09-03T20:08:20.829Z,87.40
2018-09-03T20:10:48.742Z,87.60
2018-09-03T20:13:16.767Z,87.80
2018-09-03T20:15:44.524Z,87.80
2018-09-03T20:18:12.258Z,87.50
2018-09-03T20:20:40.060Z,87.00
2018-09-03T20:23:07.836Z,86.90
2018-09-03T20:25:35.497Z,87.00
2018-09-03T20:28:03.241Z,87.20
2018-09-03T20:30:30.958Z,87.10
2018-09-03T20:32:58.570Z,87.20
2018-09-03T20:35:26.178Z,87.30
2018-09-03T20:37:53.854Z,87.60
2018-09-03T20:40:21.523Z,87.20
2018-09-03T20:42:49.364Z,87.30
2018-09-03T20:45:17.028Z,87.40
2018-09-03T20:47:44.923Z,87.70
2018-09-03T20:50:12.563Z,88.00
2018-09-03T20:52:40.263Z,87.90
2018-09-03T20:55:08.265Z,87.90
2018-09-03T20:57:35.987Z,87.90
2018-09-03T21:00:04.053Z,87.70
2018-09-03T21:02:31.717Z,88.00
2018-09-03T21:04:59.368Z,88.90
2018-09-03T21:07:27.098Z,89.50
2018-09-03T21:09:54.963Z,89.90
2018-09-03T21:12:22.599Z,90.00
2018-09-03T21:14:50.230Z,90.00
2018-09-03T21:17:17.907Z,89.90
2018-09-03T21:19:45.553Z,89.50
2018-09-03T21:22:13.203Z,89.70
2018-09-03T21:24:40.826Z,90.00
2018-09-03T21:27:10.024Z,90.10
2018-09-03T21:29:37.707Z,90.00
2018-09-03T21:32:05.565Z,90.10
2018-09-03T21:34:33.370Z,90.00
2018-09-03T21:37:01.034Z,90.00
2018-09-03T21:39:28.691Z,89.90
2018-09-03T21:41:56.448Z,90.10
2018-09-03T21:44:24.150Z,90.00
2018-09-03T21:46:51.839Z,90.00
2018-09-03T21:49:19.650Z,90.20
2018-09-03T21:51:47.279Z,90.20
2018-09-03T21:54:14.976Z,90.30
2018-09-03T21:56:42.606Z,90.20
2018-09-03T21:59:10.255Z,90.40
2018-09-03T22:01:37.967Z,90.50
2018-09-03T22:04:05.610Z,90.50
2018-09-03T22:06:33.250Z,90.50
2018-09-03T22:09:01.295Z,90.70
2018-09-03T22:11:29.088Z,90.60
2018-09-03T22:13:56.914Z,90.50
2018-09-03T22:16:24.648Z,90.60
2018-09-03T22:18:52.271Z,90.70
2018-09-03T22:21:20.012Z,90.70
2018-09-03T22:23:47.718Z,90.80
2018-09-03T22:26:15.438Z,90.90
2018-09-03T22:28:43.030Z,91.10
2018-09-03T22:31:11.007Z,91.20
2018-09-03T22:33:38.773Z,91.30
2018-09-03T22:36:06.846Z,91.30
2018-09-03T22:38:34.508Z,91.40
2018-09-03T22:41:02.205Z,91.60
2018-09-03T22:43:30.375Z,91.70
2018-09-03T22:46:00.043Z,91.80
2018-09-03T22:48:27.623Z,92.10
2018-09-03T22:50:55.319Z,92.10
2018-09-03T22:53:23.387Z,92.40
2018-09-03T22:55:51.069Z,92.60
2018-09-03T22:58:18.738Z,93.20
2018-09-03T23:00:47.007Z,93.30
2018-09-03T23:03:14.670Z,93.40
2018-09-03T23:05:42.421Z,93.20
2018-09-03T23:08:10.054Z,93.10
2018-09-03T23:10:37.718Z,93.10
2018-09-03T23:13:05.430Z,93.10
2018-09-03T23:15:33.134Z,93.10
2018-09-03T23:18:00.821Z,93.00
2018-09-03T23:20:28.514Z,93.30
2018-09-03T23:22:56.134Z,93.20
2018-09-03T23:25:23.815Z,93.00
2018-09-03T23:27:51.374Z,93.20
2018-09-03T23:30:19.063Z,93.20
2018-09-03T23:32:46.685Z,93.40
2018-09-03T23:35:14.359Z,93.40
2018-09-03T23:37:41.970Z,93.40
2018-09-03T23:40:09.605Z,93.50
2018-09-03T23:42:37.267Z,93.60
2018-09-03T23:45:05.049Z,93.70
2018-09-03T23:47:32.724Z,93.80
2018-09-03T23:50:00.659Z,93.80
2018-09-03T23:52:28.626Z,93.60
2018-09-03T23:54:56.242Z,93.50
2018-09-03T23:57:23.913Z,93.70
2018-09-03T23:59:51.568Z,93.90
